Time;durP1;ratioP1;P1;durP2;ratioP2;P2;SDS_P1;SDS_P2;PMS_P1;PMS_P2;Temp;Humidity;BMP_temperature;BMP_pressure;BME280_temperature;BME280_humidity;BME280_pressure;Samples;Min_cycle;Max_cycle;Signal;HPM_P1;HPM_P2
2023/08/30 00:00:41;;;;;;;2.22;1.58;;;15.40;99.90;;;;;;4886312;28;20175;-20
2023/08/30 00:03:07;;;;;;;2.85;1.67;;;15.40;99.90;;;;;;4879607;28;20013;-21
2023/08/30 00:05:33;;;;;;;2.38;1.40;;;15.40;99.90;;;;;;4866509;28;20430;-20
2023/08/30 00:07:59;;;;;;;2.03;1.47;;;15.50;99.90;;;;;;4865597;28;20048;-20
2023/08/30 00:10:24;;;;;;;1.80;1.42;;;15.50;99.90;;;;;;4867611;28;20100;-21
2023/08/30 00:12:50;;;;;;;2.00;1.50;;;15.60;99.90;;;;;;4857296;28;20406;-21
2023/08/30 00:15:16;;;;;;;2.72;1.65;;;15.60;99.90;;;;;;4877835;28;20037;-21
2023/08/30 00:17:43;;;;;;;2.17;1.60;;;15.60;99.90;;;;;;4875928;29;20036;-21
2023/08/30 00:20:09;;;;;;;1.95;1.40;;;15.70;99.90;;;;;;4867893;28;20152;-20
2023/08/30 00:22:35;;;;;;;1.70;1.27;;;15.70;99.90;;;;;;4873699;28;20353;-21
2023/08/30 00:25:01;;;;;;;2.87;1.40;;;15.70;99.90;;;;;;4875535;28;20028;-21
2023/08/30 00:27:27;;;;;;;2.50;1.60;;;15.70;99.90;;;;;;4852913;28;20960;-21
2023/08/30 00:29:53;;;;;;;2.40;1.88;;;15.70;99.90;;;;;;4881830;29;20039;-21
2023/08/30 00:32:19;;;;;;;2.03;1.53;;;15.80;99.90;;;;;;4857949;28;20028;-20
2023/08/30 00:34:45;;;;;;;2.05;1.58;;;15.70;99.90;;;;;;4880952;28;20033;-21
2023/08/30 00:37:10;;;;;;;2.53;1.70;;;15.80;99.90;;;;;;4859777;28;20079;-20
2023/08/30 00:39:39;;;;;;;3.23;1.90;;;15.80;99.90;;;;;;4864044;28;20809;-21
2023/08/30 00:42:07;;;;;;;2.38;1.58;;;15.80;99.90;;;;;;4881985;28;20127;-21
2023/08/30 00:44:33;;;;;;;2.50;1.77;;;15.80;99.90;;;;;;4859607;28;20536;-21
2023/08/30 00:47:03;;;;;;;2.28;1.58;;;15.80;99.90;;;;;;4950887;28;20383;-21
2023/08/30 00:49:32;;;;;;;3.47;1.60;;;15.80;99.90;;;;;;4840677;29;20055;-22
2023/08/30 00:52:01;;;;;;;2.80;1.70;;;15.70;99.90;;;;;;4866670;28;20502;-23
2023/08/30 00:54:27;;;;;;;3.63;2.05;;;15.70;99.90;;;;;;4859306;29;20319;-22
2023/08/30 00:56:54;;;;;;;3.08;1.80;;;15.70;99.90;;;;;;4866514;28;20571;-23
2023/08/30 00:59:20;;;;;;;2.88;2.00;;;15.70;99.90;;;;;;4868826;28;20269;-22
2023/08/30 01:01:45;;;;;;;4.20;1.80;;;15.60;99.90;;;;;;4869933;28;20049;-23
2023/08/30 01:04:11;;;;;;;2.83;1.85;;;15.60;99.90;;;;;;4861654;28;20029;-23
2023/08/30 01:06:37;;;;;;;4.70;1.90;;;15.50;99.90;;;;;;4861818;28;20033;-23
2023/08/30 01:09:04;;;;;;;2.40;1.53;;;15.40;99.90;;;;;;4859824;28;20168;-23
2023/08/30 01:11:48;;;;;;;1.85;1.45;;;15.40;99.90;;;;;;4873899;28;20039;-22
2023/08/30 01:14:22;;;;;;;2.13;1.52;;;15.40;99.90;;;;;;4860239;28;20037;-23
2023/08/30 01:16:48;;;;;;;2.70;1.92;;;15.30;99.90;;;;;;4868152;28;20434;-23
2023/08/30 01:19:45;;;;;;;2.58;1.70;;;15.20;99.90;;;;;;4881631;28;20646;-23
2023/08/30 01:22:45;;;;;;;2.40;1.70;;;15.20;99.90;;;;;;4867800;28;20102;-22
2023/08/30 01:25:37;;;;;;;2.70;1.58;;;15.10;99.90;;;;;;4868262;28;20041;-23
2023/08/30 01:28:06;;;;;;;2.35;1.58;;;15.10;99.90;;;;;;4880546;29;20029;-22
2023/08/30 01:30:37;;;;;;;2.78;1.80;;;15.10;99.90;;;;;;4833151;28;20394;-22
2023/08/30 01:33:04;;;;;;;2.40;1.70;;;15.00;99.90;;;;;;4868842;28;20024;-22
2023/08/30 01:35:36;;;;;;;2.30;1.60;;;15.00;99.90;;;;;;4864823;28;20082;-22
2023/08/30 01:38:04;;;;;;;2.88;1.73;;;14.90;99.90;;;;;;4865765;28;20460;-22
2023/08/30 01:40:35;;;;;;;2.45;1.60;;;14.20;99.90;;;;;;4864871;28;20616;-22
2023/08/30 01:43:04;;;;;;;2.53;1.77;;;14.90;99.90;;;;;;4882291;29;20517;-22
2023/08/30 01:45:30;;;;;;;2.65;1.58;;;14.80;99.90;;;;;;4849419;28;20189;-23
2023/08/30 01:47:57;;;;;;;2.10;1.53;;;14.80;99.90;;;;;;4882919;28;20087;-23
2023/08/30 01:50:24;;;;;;;2.38;1.77;;;14.70;99.90;;;;;;4870406;28;20028;-23
2023/08/30 01:52:51;;;;;;;2.90;1.73;;;14.80;99.90;;;;;;4883899;29;20115;-23
2023/08/30 01:55:20;;;;;;;2.90;1.75;;;14.70;99.90;;;;;;4864384;28;20033;-22
2023/08/30 01:57:46;;;;;;;2.17;1.55;;;14.70;99.90;;;;;;4876364;29;20367;-23
2023/08/30 02:00:12;;;;;;;2.30;1.50;;;14.70;99.90;;;;;;4858224;28;20142;-22
2023/08/30 02:02:38;;;;;;;2.50;1.70;;;14.70;99.90;;;;;;4874242;28;20222;-23
2023/08/30 02:05:04;;;;;;;2.15;1.52;;;14.70;99.90;;;;;;4874413;28;20174;-23
2023/08/30 02:07:54;;;;;;;2.60;1.63;;;14.70;99.90;;;;;;4883438;28;20024;-22
2023/08/30 02:10:28;;;;;;;2.50;1.50;;;14.70;99.90;;;;;;4874930;28;20513;-22
2023/08/30 02:12:55;;;;;;;2.20;1.52;;;14.80;99.90;;;;;;4883563;28;20558;-22
2023/08/30 02:15:22;;;;;;;2.67;1.65;;;14.80;99.90;;;;;;4862103;28;20510;-22
2023/08/30 02:17:49;;;;;;;2.55;1.50;;;14.80;99.90;;;;;;4897589;29;20041;-23
2023/08/30 02:20:16;;;;;;;2.60;1.70;;;14.80;99.90;;;;;;4856033;28;20116;-22
2023/08/30 02:22:41;;;;;;;2.70;1.70;;;14.90;99.90;;;;;;4962477;28;20112;-23
2023/08/30 02:25:07;;;;;;;2.88;1.73;;;14.90;99.90;;;;;;4882268;28;20196;-23
2023/08/30 02:27:34;;;;;;;2.40;1.77;;;15.00;99.90;;;;;;4856541;28;20263;-21
2023/08/30 02:30:00;;;;;;;2.50;1.58;;;15.00;99.90;;;;;;4885036;28;20033;-21
2023/08/30 02:32:26;;;;;;;2.13;1.58;;;15.10;99.90;;;;;;4872126;28;20036;-21
2023/08/30 02:34:53;;;;;;;2.60;1.57;;;15.10;99.90;;;;;;4882906;28;20025;-21
2023/08/30 02:37:19;;;;;;;2.03;1.50;;;15.20;99.90;;;;;;4863672;29;20087;-22
2023/08/30 02:39:45;;;;;;;2.60;1.60;;;15.20;99.90;;;;;;4880645;29;20549;-23
2023/08/30 02:42:10;;;;;;;2.50;1.60;;;15.30;99.90;;;;;;4868953;28;20029;-22
2023/08/30 02:44:36;;;;;;;2.97;1.70;;;15.30;99.90;;;;;;4873439;29;20037;-22
2023/08/30 02:47:02;;;;;;;2.97;1.65;;;15.30;99.90;;;;;;4881688;28;20049;-23
2023/08/30 02:49:28;;;;;;;3.65;2.33;;;15.40;99.90;;;;;;4849021;28;20123;-22
2023/08/30 02:51:53;;;;;;;2.67;1.77;;;15.40;99.90;;;;;;4877919;28;20068;-23
2023/08/30 02:54:19;;;;;;;2.83;1.70;;;15.50;99.90;;;;;;4872396;28;20035;-23
2023/08/30 02:56:45;;;;;;;2.40;1.40;;;15.50;99.90;;;;;;4883295;28;20040;-23
2023/08/30 02:59:12;;;;;;;2.80;1.70;;;15.50;99.90;;;;;;4863383;28;20041;-22
2023/08/30 03:01:38;;;;;;;2.50;1.60;;;15.50;99.90;;;;;;4882847;29;20387;-23
2023/08/30 03:04:07;;;;;;;2.07;1.43;;;15.60;99.90;;;;;;4864676;28;20044;-23
2023/08/30 03:06:33;;;;;;;2.67;1.60;;;15.60;99.90;;;;;;4870889;28;20204;-23
2023/08/30 03:08:59;;;;;;;2.30;1.50;;;15.60;99.90;;;;;;4879833;28;20099;-23
2023/08/30 03:11:25;;;;;;;2.90;1.70;;;15.60;99.90;;;;;;4881617;29;20367;-22
2023/08/30 03:13:50;;;;;;;2.20;1.40;;;15.70;99.90;;;;;;4870801;28;20593;-23
2023/08/30 03:16:17;;;;;;;2.53;1.50;;;15.70;99.90;;;;;;4851723;28;20056;-22
2023/08/30 03:18:43;;;;;;;2.40;1.50;;;15.70;99.90;;;;;;4880717;28;20433;-23
2023/08/30 03:21:09;;;;;;;2.87;1.70;;;15.70;99.90;;;;;;4849112;28;20024;-23
2023/08/30 03:23:36;;;;;;;2.40;1.58;;;15.70;99.90;;;;;;4869477;29;20479;-22
2023/08/30 03:26:12;;;;;;;2.65;1.60;;;15.80;99.90;;;;;;4881208;28;20045;-23
2023/08/30 03:28:38;;;;;;;2.85;1.60;;;15.70;99.90;;;;;;4868268;28;20080;-23
2023/08/30 03:31:21;;;;;;;2.10;1.40;;;15.80;99.90;;;;;;4891293;28;20033;-22
2023/08/30 03:33:48;;;;;;;2.10;1.43;;;15.80;99.90;;;;;;4884190;29;20041;-23
2023/08/30 03:36:16;;;;;;;2.70;1.60;;;15.80;99.90;;;;;;4854591;28;20044;-22
2023/08/30 03:38:42;;;;;;;3.15;1.60;;;15.10;99.90;;;;;;4875631;28;20202;-23
2023/08/30 03:41:10;;;;;;;2.47;1.65;;;15.80;99.90;;;;;;4880228;29;20082;-23
2023/08/30 03:43:35;;;;;;;2.25;1.50;;;15.90;99.90;;;;;;4857917;28;20041;-23
2023/08/30 03:46:03;;;;;;;2.60;1.60;;;15.90;99.90;;;;;;4889214;28;20021;-23
2023/08/30 03:48:29;;;;;;;2.33;1.60;;;15.90;99.90;;;;;;4877698;28;20037;-22
2023/08/30 03:50:55;;;;;;;1.95;1.40;;;15.90;99.90;;;;;;4882560;28;20037;-23
2023/08/30 03:53:21;;;;;;;2.30;1.50;;;15.90;99.90;;;;;;4856447;28;20033;-22
2023/08/30 03:55:47;;;;;;;2.83;1.57;;;16.00;99.90;;;;;;4883143;28;20348;-21
2023/08/30 03:58:13;;;;;;;3.55;1.80;;;16.00;99.90;;;;;;4861071;28;20312;-21
2023/08/30 04:00:39;;;;;;;2.63;1.77;;;15.90;99.90;;;;;;4864266;28;20256;-21
2023/08/30 04:03:11;;;;;;;4.73;1.93;;;16.00;99.90;;;;;;4879513;28;20321;-21
2023/08/30 04:05:37;;;;;;;3.88;1.70;;;16.00;99.90;;;;;;4880164;28;20865;-21
2023/08/30 04:08:06;;;;;;;2.95;1.63;;;16.00;99.90;;;;;;4861000;28;20045;-21
2023/08/30 04:10:40;;;;;;;3.60;1.90;;;16.00;99.90;;;;;;4878051;28;20187;-21
2023/08/30 04:13:07;;;;;;;3.92;1.90;;;16.00;99.90;;;;;;4878515;28;20095;-21
2023/08/30 04:15:34;;;;;;;3.80;2.37;;;16.00;99.90;;;;;;4867143;28;20044;-21
2023/08/30 04:17:59;;;;;;;3.70;1.90;;;16.00;99.90;;;;;;4878502;29;20043;-21
2023/08/30 04:20:25;;;;;;;3.55;1.85;;;16.00;99.90;;;;;;4868711;28;20162;-20
2023/08/30 04:22:51;;;;;;;3.40;1.70;;;16.00;99.90;;;;;;4880559;29;20454;-20
2023/08/30 04:25:17;;;;;;;3.65;2.00;;;16.10;99.90;;;;;;4861456;28;20032;-21
2023/08/30 04:27:42;;;;;;;4.23;1.80;;;16.10;99.90;;;;;;4896257;28;20419;-21
2023/08/30 04:30:10;;;;;;;4.68;2.33;;;16.10;99.90;;;;;;4867593;28;20025;-20
2023/08/30 04:32:36;;;;;;;3.20;1.80;;;16.00;99.90;;;;;;4871004;28;20605;-21
2023/08/30 04:35:02;;;;;;;4.53;1.93;;;16.10;99.90;;;;;;4883095;28;20035;-21
2023/08/30 04:37:31;;;;;;;3.78;1.70;;;16.10;99.90;;;;;;4868003;28;20032;-20
2023/08/30 04:39:57;;;;;;;3.00;1.80;;;16.10;99.90;;;;;;4877495;28;20107;-20
2023/08/30 04:42:23;;;;;;;2.67;1.83;;;16.20;99.90;;;;;;4880042;28;20025;-20
2023/08/30 04:44:49;;;;;;;3.55;1.63;;;16.20;99.90;;;;;;4877362;28;20048;-21
2023/08/30 04:47:14;;;;;;;4.35;2.00;;;16.20;99.90;;;;;;4855859;28;20071;-20
2023/08/30 04:49:40;;;;;;;3.17;1.90;;;16.20;99.90;;;;;;4877703;29;20032;-21
2023/08/30 04:52:06;;;;;;;3.22;1.83;;;16.20;99.90;;;;;;4879133;29;20131;-20
2023/08/30 04:54:31;;;;;;;4.23;1.77;;;16.20;99.90;;;;;;4869183;29;20666;-21
2023/08/30 04:56:57;;;;;;;5.00;1.70;;;16.20;99.90;;;;;;4859134;28;20040;-21
2023/08/30 04:59:24;;;;;;;2.77;1.77;;;16.20;99.90;;;;;;4874715;29;20265;-20
2023/08/30 05:01:51;;;;;;;2.80;1.70;;;16.30;99.90;;;;;;4863362;28;20032;-19
2023/08/30 05:04:17;;;;;;;4.13;1.90;;;16.30;99.90;;;;;;4860078;28;20504;-20
2023/08/30 05:06:43;;;;;;;4.00;1.80;;;16.30;99.90;;;;;;4884193;28;20114;-19
2023/08/30 05:09:09;;;;;;;5.77;1.97;;;16.30;99.90;;;;;;4862484;28;20049;-20
2023/08/30 05:11:35;;;;;;;2.97;1.80;;;16.30;99.90;;;;;;4837164;28;20039;-19
2023/08/30 05:14:01;;;;;;;3.83;1.90;;;16.30;99.90;;;;;;4878983;28;20452;-20
2023/08/30 05:16:26;;;;;;;4.03;2.20;;;16.30;99.90;;;;;;4864735;28;20613;-19
2023/08/30 05:18:52;;;;;;;3.87;1.80;;;16.30;99.90;;;;;;4874394;29;20561;-19
2023/08/30 05:21:18;;;;;;;4.63;2.27;;;16.30;99.90;;;;;;4875347;29;20305;-20
2023/08/30 05:23:44;;;;;;;3.70;2.22;;;16.30;99.90;;;;;;4879501;29;20051;-19
2023/08/30 05:26:13;;;;;;;4.10;1.95;;;16.20;99.90;;;;;;4858560;28;20021;-19
2023/08/30 05:28:39;;;;;;;3.63;1.83;;;16.20;99.90;;;;;;4853581;28;20127;-17
2023/08/30 05:31:05;;;;;;;4.53;1.67;;;16.20;99.90;;;;;;4863540;28;20036;-17
2023/08/30 05:33:31;;;;;;;4.43;1.95;;;17.80;99.90;;;;;;4861746;28;20029;-17
2023/08/30 05:35:57;;;;;;;4.65;2.00;;;16.00;99.90;;;;;;4872063;28;20158;-17
2023/08/30 05:38:23;;;;;;;4.03;2.10;;;16.00;99.90;;;;;;4877397;28;20087;-18
2023/08/30 05:40:48;;;;;;;3.42;1.80;;;16.00;99.90;;;;;;4857016;28;20417;-17
2023/08/30 05:43:16;;;;;;;2.93;1.63;;;15.90;99.90;;;;;;4872938;28;20139;-17
2023/08/30 05:45:41;;;;;;;3.67;1.80;;;15.90;99.90;;;;;;4875507;28;20664;-16
2023/08/30 05:48:07;;;;;;;3.70;1.83;;;15.90;99.90;;;;;;4867353;28;20025;-16
2023/08/30 05:50:33;;;;;;;3.30;1.80;;;15.90;99.90;;;;;;4868948;28;20304;-17
2023/08/30 05:52:58;;;;;;;3.45;1.70;;;15.80;99.90;;;;;;4892368;29;20098;-17
2023/08/30 05:55:24;;;;;;;4.47;2.03;;;15.80;99.90;;;;;;4879677;28;20029;-17
2023/08/30 05:57:50;;;;;;;3.70;1.73;;;15.80;99.90;;;;;;4869996;28;20041;-16
2023/08/30 06:00:16;;;;;;;4.23;2.10;;;15.80;99.90;;;;;;4871904;28;20572;-16
2023/08/30 06:02:41;;;;;;;4.05;1.90;;;15.70;99.90;;;;;;4876007;29;20356;-16
2023/08/30 06:05:08;;;;;;;4.27;2.00;;;15.70;99.90;;;;;;4856263;28;20643;-17
2023/08/30 06:07:34;;;;;;;3.47;1.88;;;18.10;99.90;;;;;;4878358;28;20024;-16
2023/08/30 06:10:01;;;;;;;4.10;1.98;;;15.70;99.90;;;;;;4948845;28;20495;-17
2023/08/30 06:12:27;;;;;;;4.53;1.77;;;15.70;99.90;;;;;;4865024;28;20021;-16
2023/08/30 06:14:53;;;;;;;3.17;1.73;;;15.70;99.90;;;;;;4857936;28;20036;-17
2023/08/30 06:17:19;;;;;;;3.70;2.00;;;15.80;99.90;;;;;;4876177;28;20028;-17
2023/08/30 06:19:46;;;;;;;3.40;1.90;;;15.80;99.90;;;;;;4858903;28;20087;-17
2023/08/30 06:22:12;;;;;;;4.32;2.00;;;15.80;99.90;;;;;;4875181;28;20024;-17
2023/08/30 06:24:38;;;;;;;4.33;2.00;;;15.80;99.90;;;;;;4852445;28;20487;-16
2023/08/30 06:27:04;;;;;;;2.83;1.83;;;15.30;99.90;;;;;;4872186;28;20056;-17
2023/08/30 06:29:30;;;;;;;3.22;1.90;;;15.80;99.90;;;;;;4858203;28;20692;-16
2023/08/30 06:31:55;;;;;;;3.25;2.20;;;16.50;99.90;;;;;;4880512;29;20039;-16
2023/08/30 06:34:21;;;;;;;4.80;2.40;;;15.90;99.90;;;;;;4865066;28;20039;-17
2023/08/30 06:36:48;;;;;;;3.10;1.80;;;15.90;99.90;;;;;;4882744;28;20028;-16
2023/08/30 06:39:14;;;;;;;4.83;2.17;;;15.90;99.90;;;;;;4874094;28;20331;-17
2023/08/30 06:41:39;;;;;;;3.08;1.90;;;15.90;99.90;;;;;;4878990;29;20036;-17
2023/08/30 06:44:05;;;;;;;4.35;2.40;;;15.90;99.90;;;;;;4866288;28;20047;-17
2023/08/30 06:46:31;;;;;;;3.15;2.13;;;15.90;99.90;;;;;;4866996;28;20035;-16
2023/08/30 06:48:57;;;;;;;2.77;1.70;;;15.90;99.90;;;;;;4885341;28;20033;-16
2023/08/30 06:51:23;;;;;;;4.32;1.60;;;15.90;99.90;;;;;;4853212;28;20058;-17
2023/08/30 06:53:49;;;;;;;2.58;1.50;;;15.90;99.90;;;;;;4884856;29;20501;-17
2023/08/30 06:56:15;;;;;;;2.20;1.80;;;15.90;99.90;;;;;;4872044;29;20497;-17
2023/08/30 06:58:40;;;;;;;2.78;1.73;;;16.00;99.90;;;;;;4851102;28;20215;-17
2023/08/30 07:01:06;;;;;;;3.13;1.50;;;16.00;99.90;;;;;;4860376;28;20040;-17
2023/08/30 07:03:32;;;;;;;3.10;1.75;;;16.00;99.90;;;;;;4881128;28;20664;-17
2023/08/30 07:05:57;;;;;;;3.03;1.93;;;16.00;99.90;;;;;;4890187;28;20033;-17
2023/08/30 07:08:23;;;;;;;2.78;1.98;;;16.00;99.90;;;;;;4861819;29;20136;-17
2023/08/30 07:10:51;;;;;;;3.17;1.43;;;16.00;99.90;;;;;;4858716;28;20067;-17
2023/08/30 07:13:17;;;;;;;2.70;1.70;;;15.90;99.90;;;;;;4871928;28;20040;-17
2023/08/30 07:15:43;;;;;;;3.58;1.80;;;16.00;99.90;;;;;;4856197;28;20833;-17
2023/08/30 07:18:09;;;;;;;2.93;1.40;;;16.00;99.90;;;;;;4863703;28;20032;-17
2023/08/30 07:20:38;;;;;;;3.13;2.00;;;16.00;99.90;;;;;;4847819;28;20060;-17
2023/08/30 07:23:04;;;;;;;2.05;1.40;;;16.00;99.90;;;;;;4881427;29;20389;-17
2023/08/30 07:25:32;;;;;;;3.38;1.67;;;16.00;99.90;;;;;;4881626;28;20025;-17
2023/08/30 07:27:59;;;;;;;2.80;1.55;;;16.10;99.90;;;;;;4881136;29;20382;-18
2023/08/30 07:30:24;;;;;;;7.53;2.30;;;16.10;99.90;;;;;;4871512;28;20055;-18
2023/08/30 07:32:50;;;;;;;3.83;1.98;;;15.50;99.90;;;;;;4847511;28;20557;-18
2023/08/30 07:35:16;;;;;;;3.90;2.00;;;16.10;99.90;;;;;;4879686;28;20044;-18
2023/08/30 07:37:42;;;;;;;5.53;2.07;;;16.10;99.90;;;;;;4867747;28;20885;-17
2023/08/30 07:40:08;;;;;;;3.13;1.60;;;16.20;99.90;;;;;;4881928;28;20048;-17
2023/08/30 07:42:34;;;;;;;2.35;1.65;;;16.20;99.90;;;;;;4869370;28;20694;-16
2023/08/30 07:45:00;;;;;;;2.93;1.50;;;16.20;99.90;;;;;;4871587;28;20037;-16
2023/08/30 07:47:26;;;;;;;2.58;1.33;;;16.20;99.90;;;;;;4862412;28;20025;-16
2023/08/30 07:49:51;;;;;;;2.60;1.60;;;16.20;99.90;;;;;;4873992;28;20035;-17
2023/08/30 07:52:17;;;;;;;3.05;1.90;;;16.20;99.90;;;;;;4881570;28;20698;-17
2023/08/30 07:54:43;;;;;;;2.43;1.50;;;16.30;99.90;;;;;;4878209;29;20095;-17
2023/08/30 07:57:08;;;;;;;2.88;1.63;;;16.30;99.90;;;;;;4872742;29;20605;-17
2023/08/30 07:59:36;;;;;;;2.23;1.50;;;16.30;99.90;;;;;;4851331;28;20167;-17
2023/08/30 08:02:02;;;;;;;2.20;1.50;;;16.40;99.90;;;;;;4878580;29;20036;-17
2023/08/30 08:04:28;;;;;;;1.63;1.40;;;16.40;99.90;;;;;;4858429;28;20029;-17
2023/08/30 08:06:54;;;;;;;2.92;1.75;;;16.50;99.90;;;;;;4881229;29;20028;-17
2023/08/30 08:09:21;;;;;;;2.80;1.60;;;16.50;99.90;;;;;;4847310;28;20483;-18
2023/08/30 08:11:49;;;;;;;2.92;1.60;;;16.60;99.90;;;;;;4878716;29;20248;-19
2023/08/30 08:14:15;;;;;;;2.85;1.73;;;16.60;99.90;;;;;;4872099;29;20032;-19
2023/08/30 08:16:41;;;;;;;2.13;1.50;;;16.60;99.90;;;;;;4857954;28;20482;-19
2023/08/30 08:19:07;;;;;;;2.70;1.60;;;16.70;99.90;;;;;;4883695;28;20032;-19
2023/08/30 08:21:35;;;;;;;3.72;2.00;;;16.70;99.90;;;;;;4855432;28;20232;-19
2023/08/30 08:24:01;;;;;;;2.30;1.40;;;16.70;99.90;;;;;;4853511;28;20040;-19
2023/08/30 08:26:27;;;;;;;2.40;1.70;;;16.80;99.90;;;;;;4887359;28;20529;-19
2023/08/30 08:28:56;;;;;;;2.37;1.50;;;16.80;99.90;;;;;;4865814;28;20052;-19
2023/08/30 08:31:22;;;;;;;2.75;1.80;;;16.90;99.90;;;;;;4843336;28;20045;-19
2023/08/30 08:33:52;;;;;;;3.53;1.75;;;16.90;99.90;;;;;;4882221;28;20478;-19
2023/08/30 08:36:19;;;;;;;2.77;1.80;;;17.00;99.90;;;;;;4863871;28;20406;-19
2023/08/30 08:38:45;;;;;;;3.60;1.98;;;17.10;99.90;;;;;;4877898;28;20252;-17
2023/08/30 08:41:15;;;;;;;2.20;1.35;;;17.20;99.90;;;;;;4870632;29;20033;-17
2023/08/30 08:43:43;;;;;;;3.77;1.90;;;17.20;99.90;;;;;;4878964;29;20449;-17
2023/08/30 08:46:11;;;;;;;3.08;1.73;;;17.30;99.90;;;;;;4860286;28;20159;-18
2023/08/30 08:48:41;;;;;;;2.85;1.85;;;17.50;99.90;;;;;;4930521;28;20036;-17
2023/08/30 08:51:06;;;;;;;2.35;1.48;;;17.60;99.90;;;;;;4851619;28;20037;-18
2023/08/30 08:53:32;;;;;;;2.50;1.60;;;17.70;99.90;;;;;;4843682;28;20040;-18
2023/08/30 08:56:00;;;;;;;2.88;1.85;;;17.80;99.90;;;;;;4879167;28;20265;-17
2023/08/30 08:58:26;;;;;;;2.22;1.40;;;17.90;99.90;;;;;;4878056;28;20036;-17
2023/08/30 09:00:53;;;;;;;2.55;1.50;;;17.90;99.90;;;;;;4860962;29;20234;-17
2023/08/30 09:03:20;;;;;;;2.70;1.47;;;18.00;99.90;;;;;;4870294;29;20476;-17
2023/08/30 09:05:46;;;;;;;2.25;1.58;;;18.10;99.90;;;;;;4872128;28;20119;-17
2023/08/30 09:08:13;;;;;;;4.07;2.05;;;18.10;99.90;;;;;;4862842;28;20041;-17
2023/08/30 09:10:39;;;;;;;2.20;1.30;;;18.10;99.90;;;;;;4857784;28;20860;-18
2023/08/30 09:13:06;;;;;;;2.53;1.52;;;18.10;99.90;;;;;;4879506;28;20036;-17
2023/08/30 09:15:32;;;;;;;3.20;1.90;;;18.10;99.90;;;;;;4875382;29;20037;-17
2023/08/30 09:17:58;;;;;;;3.33;1.80;;;18.10;99.90;;;;;;4861901;28;20433;-17
2023/08/30 09:20:24;;;;;;;2.50;1.70;;;18.20;99.90;;;;;;4881540;28;20436;-17
2023/08/30 09:22:50;;;;;;;2.50;1.50;;;18.20;99.90;;;;;;4856911;28;20320;-17
2023/08/30 09:25:27;;;;;;;2.40;1.70;;;18.20;99.90;;;;;;4862529;28;20048;-17
2023/08/30 09:28:03;;;;;;;2.83;1.80;;;18.30;99.90;;;;;;4888453;29;20682;-17
2023/08/30 09:30:29;;;;;;;4.55;1.90;;;18.40;99.90;;;;;;4877915;28;20029;-18
2023/08/30 09:33:02;;;;;;;2.60;1.70;;;18.60;99.90;;;;;;4868874;28;20079;-17
2023/08/30 09:35:28;;;;;;;3.15;2.00;;;18.70;99.90;;;;;;4874169;28;20386;-18
2023/08/30 09:37:54;;;;;;;2.85;1.98;;;18.80;99.90;;;;;;4867296;29;20296;-17
2023/08/30 09:40:20;;;;;;;2.77;1.90;;;18.90;99.90;;;;;;4855245;28;20076;-17
2023/08/30 09:42:47;;;;;;;2.80;1.77;;;19.00;99.90;;;;;;4864956;28;20059;-17
2023/08/30 09:45:22;;;;;;;2.10;1.52;;;19.00;99.90;;;;;;4883617;28;20020;-17
2023/08/30 09:47:51;;;;;;;2.85;1.70;;;19.20;99.90;;;;;;4827162;29;20032;-17
2023/08/30 09:50:21;;;;;;;3.07;1.97;;;19.30;99.90;;;;;;4872219;28;20045;-18
2023/08/30 09:52:53;;;;;;;2.75;2.00;;;19.40;99.90;;;;;;4852879;28;20087;-18
2023/08/30 09:55:21;;;;;;;3.15;1.95;;;19.40;99.90;;;;;;4854763;28;20049;-18
2023/08/30 09:57:48;;;;;;;2.80;1.90;;;19.40;99.90;;;;;;4860621;28;20460;-18
2023/08/30 10:00:14;;;;;;;2.65;1.80;;;19.50;99.90;;;;;;4871169;29;20128;-17
2023/08/30 10:02:43;;;;;;;2.67;2.00;;;19.50;99.90;;;;;;4867340;28;20534;-17
2023/08/30 10:05:11;;;;;;;2.80;1.88;;;19.50;99.90;;;;;;4885711;29;20378;-17
2023/08/30 10:07:38;;;;;;;3.30;2.30;;;17.80;99.90;;;;;;4859363;29;20256;-16
2023/08/30 10:10:04;;;;;;;3.35;2.08;;;19.50;99.90;;;;;;4875653;28;20032;-16
2023/08/30 10:12:34;;;;;;;3.00;2.03;;;19.60;99.90;;;;;;4841930;28;20195;-16
2023/08/30 10:15:00;;;;;;;2.67;1.90;;;19.60;99.90;;;;;;4870817;29;20060;-18
2023/08/30 10:17:34;;;;;;;3.15;1.90;;;19.70;99.90;;;;;;4876418;28;20725;-18
2023/08/30 10:20:04;;;;;;;2.40;1.70;;;19.70;99.90;;;;;;4884819;28;20075;-18
2023/08/30 10:22:32;;;;;;;3.40;2.10;;;19.80;99.90;;;;;;4878273;28;20680;-18
2023/08/30 10:25:04;;;;;;;3.30;2.10;;;20.00;99.90;;;;;;4860615;28;20036;-19
2023/08/30 10:27:33;;;;;;;2.80;2.20;;;20.10;99.90;;;;;;4855060;28;20025;-19
2023/08/30 10:30:01;;;;;;;3.47;2.40;;;20.20;99.90;;;;;;4852134;28;20032;-19
2023/08/30 10:32:27;;;;;;;4.55;2.40;;;20.30;99.90;;;;;;4877715;29;20116;-19
2023/08/30 10:34:52;;;;;;;3.60;2.50;;;20.40;99.90;;;;;;4844331;28;20047;-17
2023/08/30 10:37:27;;;;;;;4.40;2.50;;;20.40;99.90;;;;;;4868828;28;20036;-17
2023/08/30 10:39:53;;;;;;;4.00;2.38;;;20.50;99.90;;;;;;4857305;28;20035;-17
2023/08/30 10:42:23;;;;;;;4.20;2.50;;;20.50;99.90;;;;;;4870738;28;20037;-19
2023/08/30 10:45:06;;;;;;;3.80;2.27;;;20.50;99.90;;;;;;4862793;28;20599;-19
2023/08/30 10:47:38;;;;;;;3.05;2.10;;;20.50;99.90;;;;;;4958186;28;20021;-19
2023/08/30 10:50:11;;;;;;;2.78;2.05;;;20.50;99.90;;;;;;4874702;28;20037;-19
2023/08/30 10:52:37;;;;;;;3.83;2.20;;;20.40;99.90;;;;;;4879231;28;20637;-19
2023/08/30 10:55:11;;;;;;;2.88;2.10;;;20.40;99.90;;;;;;4877233;28;20021;-19
2023/08/30 10:57:37;;;;;;;3.83;2.30;;;20.40;99.90;;;;;;4850554;28;20288;-19
2023/08/30 11:00:13;;;;;;;2.67;1.98;;;20.40;99.90;;;;;;4885112;28;20036;-18
2023/08/30 11:02:44;;;;;;;2.95;2.10;;;20.40;99.90;;;;;;4878584;28;20606;-17
2023/08/30 11:05:10;;;;;;;3.38;2.20;;;20.40;99.90;;;;;;4874331;29;20025;-18
2023/08/30 11:07:36;;;;;;;3.73;2.30;;;19.30;99.90;;;;;;4870343;28;20056;-18
2023/08/30 11:10:06;;;;;;;3.45;2.25;;;20.40;99.90;;;;;;4876629;29;20029;-18
2023/08/30 11:12:32;;;;;;;3.25;2.30;;;20.40;99.90;;;;;;4856562;28;20099;-18
2023/08/30 11:14:57;;;;;;;3.87;2.40;;;20.40;99.90;;;;;;4939839;28;20044;-19
2023/08/30 11:17:23;;;;;;;3.08;2.28;;;20.50;99.90;;;;;;4877197;28;20095;-18
2023/08/30 11:19:57;;;;;;;3.38;2.28;;;20.50;99.90;;;;;;4890497;28;20032;-18
2023/08/30 11:22:23;;;;;;;3.23;2.23;;;20.60;99.90;;;;;;4858411;28;20528;-18
2023/08/30 11:24:49;;;;;;;2.95;2.15;;;20.60;99.90;;;;;;4888585;29;20040;-19
2023/08/30 11:27:17;;;;;;;4.55;2.70;;;20.70;99.90;;;;;;4872921;28;20250;-19
2023/08/30 11:29:43;;;;;;;5.05;2.30;;;20.70;99.90;;;;;;4860976;28;20110;-19
2023/08/30 11:32:09;;;;;;;3.40;2.10;;;20.70;99.90;;;;;;4855410;28;20036;-19
2023/08/30 11:34:34;;;;;;;3.25;2.10;;;20.80;99.90;;;;;;4880913;29;20115;-19
2023/08/30 11:37:00;;;;;;;3.20;2.00;;;20.80;99.90;;;;;;4871464;29;20089;-17
2023/08/30 11:39:28;;;;;;;2.60;1.70;;;20.80;99.90;;;;;;4870570;28;20056;-17
2023/08/30 11:41:55;;;;;;;3.25;1.67;;;20.80;99.90;;;;;;4874951;28;20047;-18
2023/08/30 11:44:23;;;;;;;3.28;1.50;;;20.90;99.90;;;;;;4859880;28;20141;-17
2023/08/30 11:46:49;;;;;;;2.70;1.70;;;20.90;99.90;;;;;;4866334;28;20040;-18
2023/08/30 11:49:16;;;;;;;2.30;1.60;;;21.10;99.90;;;;;;4881227;28;20694;-17
2023/08/30 11:51:42;;;;;;;2.28;1.33;;;21.30;99.90;;;;;;4881004;28;20031;-17
2023/08/30 11:54:08;;;;;;;2.72;1.40;;;21.60;99.90;;;;;;4869396;28;20489;-18
2023/08/30 11:56:35;;;;;;;2.72;1.42;;;21.90;99.90;;;;;;4875022;28;20537;-18
2023/08/30 11:59:02;;;;;;;2.37;1.33;;;22.20;99.90;;;;;;4863679;28;20112;-19
2023/08/30 12:01:28;;;;;;;3.97;1.50;;;22.40;99.90;;;;;;4865518;28;20025;-18
2023/08/30 12:03:54;;;;;;;1.83;1.25;;;22.50;99.90;;;;;;4887213;28;20028;-19
2023/08/30 12:06:23;;;;;;;2.50;1.20;;;22.60;99.90;;;;;;4880299;29;20024;-18
2023/08/30 12:08:57;;;;;;;3.23;1.53;;;22.70;99.90;;;;;;4871869;28;20325;-20
2023/08/30 12:11:22;;;;;;;3.15;1.30;;;22.80;99.90;;;;;;4878253;29;20173;-20
2023/08/30 12:13:48;;;;;;;2.80;1.50;;;22.90;99.90;;;;;;4871529;28;20238;-20
2023/08/30 12:16:17;;;;;;;1.60;1.30;;;22.90;99.90;;;;;;4860201;28;20075;-20
2023/08/30 12:18:44;;;;;;;2.13;1.23;;;22.90;99.90;;;;;;4879601;29;20024;-20
2023/08/30 12:21:10;;;;;;;3.25;1.48;;;23.10;99.90;;;;;;4878160;28;20115;-20
2023/08/30 12:23:35;;;;;;;5.63;1.30;;;23.30;99.90;;;;;;4864164;28;20040;-21
2023/08/30 12:26:07;;;;;;;2.77;1.60;;;23.70;99.90;;;;;;4869265;28;20044;-21
2023/08/30 12:28:35;;;;;;;3.13;1.50;;;24.00;99.90;;;;;;4880653;29;20728;-21
2023/08/30 12:31:01;;;;;;;3.88;1.20;;;24.20;99.90;;;;;;4856141;28;20040;-21
2023/08/30 12:33:30;;;;;;;2.75;1.20;;;24.30;99.90;;;;;;4864966;28;20140;-21
2023/08/30 12:35:56;;;;;;;2.97;1.40;;;24.40;99.90;;;;;;4863875;28;20115;-22
2023/08/30 12:38:23;;;;;;;4.32;1.50;;;24.40;99.90;;;;;;4880076;29;20269;-22
2023/08/30 12:40:51;;;;;;;3.50;1.40;;;24.40;99.90;;;;;;4871047;28;20068;-22
2023/08/30 12:43:17;;;;;;;2.78;1.40;;;24.40;99.90;;;;;;4879169;28;20145;-22
2023/08/30 12:45:44;;;;;;;3.35;1.33;;;24.50;99.90;;;;;;4859985;28;20459;-22
2023/08/30 12:48:11;;;;;;;2.03;1.10;;;24.50;99.90;;;;;;4861869;28;20355;-23